Time;durP1;ratioP1;P1;durP2;ratioP2;P2;SDS_P1;SDS_P2;PMS_P1;PMS_P2;Temp;Humidity;BMP_temperature;BMP_pressure;BME280_temperature;BME280_humidity;BME280_pressure;Samples;Min_cycle;Max_cycle;Signal;HPM_P1;HPM_P2
2022/12/11 00:00:26;;;;;;;57.13;30.05;;;0.10;99.90;;;;;;2056049;28;20030;-68
2022/12/11 00:01:27;;;;;;;55.50;30.10;;;0.10;99.90;;;;;;2055887;28;20030;-68
2022/12/11 00:02:28;;;;;;;58.03;30.80;;;0.00;99.90;;;;;;2056250;28;20101;-67
2022/12/11 00:03:31;;;;;;;61.22;32.30;;;0.00;99.90;;;;;;2056139;28;20019;-68
2022/12/11 00:04:32;;;;;;;61.75;32.17;;;0.10;99.90;;;;;;2055924;28;20026;-69
2022/12/11 00:05:33;;;;;;;57.95;30.27;;;0.00;99.90;;;;;;2063384;28;20433;-68
2022/12/11 00:06:34;;;;;;;58.22;30.25;;;0.00;99.90;;;;;;2063266;28;20693;-66
2022/12/11 00:07:35;;;;;;;61.65;31.17;;;0.00;99.90;;;;;;2055956;28;20031;-66
2022/12/11 00:08:37;;;;;;;59.40;31.20;;;0.00;99.90;;;;;;2047083;28;20489;-66
2022/12/11 00:09:41;;;;;;;60.60;32.13;;;0.10;99.90;;;;;;2047657;28;20027;-68
2022/12/11 00:10:54;;;;;;;62.33;32.20;;;0.10;99.90;;;;;;2056524;28;20096;-67
2022/12/11 00:12:01;;;;;;;62.38;31.55;;;0.10;99.90;;;;;;2056642;28;20029;-67
2022/12/11 00:13:02;;;;;;;62.38;31.70;;;0.10;99.90;;;;;;2049691;28;20039;-67
2022/12/11 00:14:09;;;;;;;65.05;32.80;;;0.10;99.90;;;;;;2057342;28;20031;-67
2022/12/11 00:15:12;;;;;;;62.47;31.65;;;0.10;99.90;;;;;;2041647;29;20067;-68
2022/12/11 00:16:14;;;;;;;60.08;30.38;;;0.10;99.90;;;;;;2048347;28;20094;-67
2022/12/11 00:17:14;;;;;;;59.65;32.22;;;0.10;99.90;;;;;;2056866;28;20031;-65
2022/12/11 00:18:15;;;;;;;58.25;30.90;;;0.10;99.90;;;;;;2056976;28;20140;-66
2022/12/11 00:19:16;;;;;;;60.60;30.70;;;0.00;99.90;;;;;;2056170;28;20547;-67
2022/12/11 00:20:17;;;;;;;60.17;30.98;;;0.00;99.90;;;;;;2056606;28;20042;-66
2022/12/11 00:21:18;;;;;;;60.47;30.77;;;0.00;99.90;;;;;;2056903;28;20086;-66
2022/12/11 00:22:18;;;;;;;59.60;31.17;;;0.00;99.90;;;;;;2059884;28;20023;-66
2022/12/11 00:23:19;;;;;;;57.10;30.63;;;0.00;99.90;;;;;;2056828;28;20030;-66
2022/12/11 00:24:20;;;;;;;58.88;30.70;;;0.00;99.90;;;;;;2056694;28;20031;-66
2022/12/11 00:25:21;;;;;;;57.60;29.90;;;0.00;99.90;;;;;;2056642;28;20030;-67
2022/12/11 00:26:22;;;;;;;57.33;30.77;;;0.00;99.90;;;;;;2055888;28;20034;-67
2022/12/11 00:27:23;;;;;;;59.55;31.30;;;0.00;99.90;;;;;;2056883;28;20819;-67
2022/12/11 00:28:23;;;;;;;59.13;30.77;;;0.00;99.90;;;;;;2057169;28;20110;-67
2022/12/11 00:29:24;;;;;;;61.00;31.63;;;0.00;99.90;;;;;;2057229;28;20489;-67
2022/12/11 00:30:25;;;;;;;58.53;30.08;;;0.00;99.90;;;;;;2058152;28;20083;-67
2022/12/11 00:31:25;;;;;;;58.95;30.88;;;0.10;99.90;;;;;;2058311;28;20027;-67
2022/12/11 00:32:26;;;;;;;61.33;31.05;;;0.00;99.90;;;;;;2059072;28;20031;-67
2022/12/11 00:33:30;;;;;;;57.50;31.17;;;0.00;99.90;;;;;;2066456;28;20030;-66
2022/12/11 00:34:30;;;;;;;60.40;31.60;;;0.00;99.90;;;;;;2065278;28;20122;-67
2022/12/11 00:35:31;;;;;;;60.50;31.83;;;0.00;99.90;;;;;;2057948;28;20043;-67
2022/12/11 00:36:32;;;;;;;61.08;32.35;;;0.00;99.90;;;;;;2055275;28;20043;-67
2022/12/11 00:37:33;;;;;;;59.97;32.03;;;0.00;99.90;;;;;;2055152;28;20036;-67
2022/12/11 00:38:34;;;;;;;60.72;32.33;;;0.00;99.90;;;;;;2055310;28;20027;-67
2022/12/11 00:39:36;;;;;;;59.35;31.00;;;0.00;99.90;;;;;;2056071;28;20034;-67
2022/12/11 00:40:36;;;;;;;63.08;32.75;;;0.00;99.90;;;;;;2049085;28;20039;-67
2022/12/11 00:41:37;;;;;;;61.30;31.92;;;0.00;99.90;;;;;;2054397;28;20557;-67
2022/12/11 00:42:38;;;;;;;62.47;32.85;;;0.00;99.90;;;;;;2056073;28;20128;-67
2022/12/11 00:43:38;;;;;;;59.83;31.77;;;0.00;99.90;;;;;;2055779;28;20039;-67
2022/12/11 00:44:39;;;;;;;60.40;32.40;;;-0.10;99.90;;;;;;2055559;28;20034;-67
2022/12/11 00:45:43;;;;;;;63.08;31.92;;;-0.10;99.90;;;;;;2055455;28;20023;-67
2022/12/11 00:46:44;;;;;;;64.20;33.38;;;-0.10;99.90;;;;;;2055419;28;20057;-67
2022/12/11 00:47:45;;;;;;;64.38;32.88;;;-0.10;99.90;;;;;;2055566;28;20023;-67
2022/12/11 00:48:47;;;;;;;62.03;32.55;;;0.00;99.90;;;;;;2063089;28;20022;-67
2022/12/11 00:49:48;;;;;;;59.85;32.25;;;0.00;99.90;;;;;;2054725;28;20086;-67
2022/12/11 00:50:48;;;;;;;60.95;32.03;;;0.00;99.90;;;;;;2054936;28;20057;-67
2022/12/11 00:51:49;;;;;;;59.88;31.33;;;0.00;99.90;;;;;;2055678;28;20103;-66
2022/12/11 00:52:50;;;;;;;62.83;32.90;;;0.00;99.90;;;;;;2055823;28;20213;-67
2022/12/11 00:53:51;;;;;;;63.92;31.95;;;0.00;99.90;;;;;;2055794;28;20027;-67
2022/12/11 00:54:51;;;;;;;60.47;31.27;;;0.00;99.90;;;;;;2055436;28;20019;-68
2022/12/11 00:55:52;;;;;;;62.47;32.13;;;0.00;99.90;;;;;;2055268;28;21828;-68
2022/12/11 00:56:54;;;;;;;59.85;31.15;;;0.00;99.90;;;;;;2062839;28;20033;-68
2022/12/11 00:57:57;;;;;;;62.53;32.55;;;-0.10;99.90;;;;;;2062638;28;20118;-68
2022/12/11 00:58:57;;;;;;;68.60;33.88;;;0.00;99.90;;;;;;2055092;28;20042;-68
2022/12/11 00:59:58;;;;;;;64.43;32.78;;;0.00;99.90;;;;;;2054895;28;20027;-67
2022/12/11 01:01:05;;;;;;;63.65;33.25;;;-0.10;99.90;;;;;;2055568;28;20072;-68
2022/12/11 01:02:06;;;;;;;64.38;33.67;;;-0.10;99.90;;;;;;2055547;28;20070;-68
2022/12/11 01:03:07;;;;;;;67.47;34.78;;;-0.10;99.90;;;;;;2054730;28;20043;-68
2022/12/11 01:04:08;;;;;;;62.67;33.35;;;-0.10;99.90;;;;;;2054588;28;20022;-67
2022/12/11 01:05:09;;;;;;;65.88;33.55;;;-0.10;99.90;;;;;;2055558;28;20039;-67
2022/12/11 01:06:17;;;;;;;64.65;33.20;;;-0.10;99.90;;;;;;2055110;28;20035;-68
2022/12/11 01:07:18;;;;;;;64.60;33.00;;;-0.10;99.90;;;;;;2055751;28;20050;-67
2022/12/11 01:08:20;;;;;;;64.63;32.95;;;-0.10;99.90;;;;;;2059022;28;20034;-67
2022/12/11 01:10:40;;;;;;;60.08;30.77;;;-0.20;99.90;;;;;;2061377;28;20066;-65
2022/12/11 01:11:41;;;;;;;58.95;31.15;;;-0.10;99.90;;;;;;2059607;28;20104;-69
2022/12/11 01:12:43;;;;;;;57.80;31.25;;;-0.10;99.90;;;;;;2058167;28;20038;-68
2022/12/11 01:13:45;;;;;;;59.58;32.05;;;-0.10;99.90;;;;;;2058018;28;20030;-67
2022/12/11 01:14:45;;;;;;;62.75;33.60;;;-0.10;99.90;;;;;;2058865;28;20122;-67
2022/12/11 01:15:46;;;;;;;61.88;32.33;;;-0.10;99.90;;;;;;2060586;28;20070;-67
2022/12/11 01:16:47;;;;;;;65.50;33.92;;;-0.20;99.90;;;;;;2061319;28;20019;-67
2022/12/11 01:17:48;;;;;;;61.75;32.20;;;-0.20;99.90;;;;;;2061356;28;20038;-68
2022/12/11 01:18:49;;;;;;;60.88;32.30;;;-0.20;99.90;;;;;;2051466;28;20458;-66
2022/12/11 01:19:52;;;;;;;58.17;30.80;;;-0.20;99.90;;;;;;2059088;28;20069;-67
2022/12/11 01:20:53;;;;;;;64.03;32.75;;;-0.20;99.90;;;;;;2058409;28;20035;-67
2022/12/11 01:21:54;;;;;;;63.13;31.58;;;-0.20;99.90;;;;;;2058653;28;20772;-67
2022/12/11 01:22:57;;;;;;;57.83;30.20;;;-0.20;99.90;;;;;;2058973;28;20026;-67
2022/12/11 01:23:57;;;;;;;59.00;31.20;;;-0.20;99.90;;;;;;2059325;28;20034;-67
2022/12/11 01:24:58;;;;;;;56.35;29.83;;;-0.20;99.90;;;;;;2057371;28;20065;-67
2022/12/11 01:26:07;;;;;;;57.90;30.38;;;-0.20;99.90;;;;;;2058554;28;20845;-66
2022/12/11 01:27:08;;;;;;;57.08;31.02;;;-0.20;99.90;;;;;;2058324;28;20603;-66
2022/12/11 01:28:09;;;;;;;55.35;29.42;;;-0.20;99.90;;;;;;2057931;28;20051;-68
2022/12/11 01:29:10;;;;;;;54.83;29.10;;;-0.20;99.90;;;;;;2059936;28;20102;-66
2022/12/11 01:30:12;;;;;;;56.53;28.80;;;-0.20;99.90;;;;;;2058562;28;20034;-67
2022/12/11 01:31:15;;;;;;;53.95;28.77;;;-0.20;99.90;;;;;;2055374;28;20065;-65
2022/12/11 01:32:16;;;;;;;55.67;29.70;;;-0.20;99.90;;;;;;2056604;28;20035;-68
2022/12/11 01:33:17;;;;;;;54.33;29.20;;;-0.20;99.90;;;;;;2057761;28;20027;-66
2022/12/11 01:34:17;;;;;;;56.72;30.33;;;-0.30;99.90;;;;;;2056607;28;20457;-67
2022/12/11 01:35:18;;;;;;;58.63;30.65;;;-0.20;99.90;;;;;;2055605;28;20033;-67
2022/12/11 01:36:20;;;;;;;57.15;30.48;;;-0.20;99.90;;;;;;2056340;28;20035;-67
2022/12/11 01:37:21;;;;;;;58.28;30.48;;;-0.20;99.90;;;;;;2057430;28;20081;-67
2022/12/11 01:38:22;;;;;;;56.65;29.88;;;-0.30;99.90;;;;;;2064406;28;20184;-67
2022/12/11 01:39:22;;;;;;;55.92;30.48;;;-0.20;99.90;;;;;;2063284;28;20103;-67
2022/12/11 01:40:23;;;;;;;59.38;32.05;;;-0.30;99.90;;;;;;2063150;28;20327;-68
2022/12/11 01:41:24;;;;;;;57.10;30.65;;;-0.30;99.90;;;;;;2064766;28;20038;-67
2022/12/11 01:42:25;;;;;;;60.25;31.88;;;-0.30;99.90;;;;;;2057666;28;20026;-67
2022/12/11 01:43:25;;;;;;;59.25;30.75;;;-0.30;99.90;;;;;;2057113;28;20552;-67
2022/12/11 01:44:26;;;;;;;58.40;30.05;;;-0.30;99.90;;;;;;2057005;28;20035;-67
2022/12/11 01:45:40;;;;;;;60.30;31.95;;;-0.30;99.90;;;;;;2064375;28;20631;-68
2022/12/11 01:46:42;;;;;;;57.88;30.10;;;-0.30;99.90;;;;;;2056261;28;20126;-67
2022/12/11 01:47:44;;;;;;;55.45;29.17;;;-0.30;99.90;;;;;;2055839;28;20057;-67
2022/12/11 01:48:44;;;;;;;53.67;29.13;;;-0.30;99.90;;;;;;2056727;28;20648;-67
2022/12/11 01:49:45;;;;;;;56.38;29.48;;;-0.30;99.90;;;;;;2057877;28;20027;-67
2022/12/11 01:50:49;;;;;;;56.42;29.77;;;-0.30;99.90;;;;;;2059695;28;20117;-67
2022/12/11 01:51:54;;;;;;;54.90;29.15;;;-0.30;99.90;;;;;;2060092;28;20039;-66
2022/12/11 01:52:55;;;;;;;52.60;28.40;;;-0.30;99.90;;;;;;2061319;28;20113;-67
2022/12/11 01:54:05;;;;;;;57.35;30.02;;;-0.30;99.90;;;;;;2061285;28;20034;-67
2022/12/11 01:55:08;;;;;;;55.97;29.20;;;-0.30;99.90;;;;;;2060562;28;20168;-67
2022/12/11 01:56:09;;;;;;;56.70;29.10;;;-0.30;99.90;;;;;;2060980;28;20027;-67
2022/12/11 01:57:11;;;;;;;58.08;30.17;;;-0.30;99.90;;;;;;2060877;28;20133;-67
2022/12/11 01:58:13;;;;;;;58.28;30.75;;;-0.30;99.90;;;;;;2060734;28;20677;-67
2022/12/11 01:59:19;;;;;;;57.08;29.98;;;-0.30;99.90;;;;;;2060912;28;20027;-66
2022/12/11 02:00:20;;;;;;;57.95;29.70;;;-0.30;99.90;;;;;;2061486;28;20058;-67
2022/12/11 02:01:30;;;;;;;56.95;30.00;;;-0.30;99.90;;;;;;2053013;28;20111;-67
2022/12/11 02:02:32;;;;;;;53.17;28.05;;;-0.40;99.90;;;;;;2061340;28;20525;-67
2022/12/11 02:03:33;;;;;;;56.55;28.95;;;-0.30;99.90;;;;;;2062700;28;20042;-67
2022/12/11 02:04:37;;;;;;;51.67;28.20;;;-0.30;99.90;;;;;;2062063;28;20038;-68
2022/12/11 02:05:38;;;;;;;49.95;26.98;;;-0.40;99.90;;;;;;2061575;28;20042;-66
2022/12/11 02:06:41;;;;;;;50.60;27.38;;;-0.30;99.90;;;;;;2061594;28;20053;-67
2022/12/11 02:07:49;;;;;;;53.35;27.90;;;-0.30;99.90;;;;;;2061463;28;20023;-68
2022/12/11 02:08:50;;;;;;;56.70;29.63;;;-0.30;99.90;;;;;;2060824;28;20559;-66
2022/12/11 02:09:51;;;;;;;54.40;28.48;;;-0.30;99.90;;;;;;2060447;28;20027;-67
2022/12/11 02:11:17;;;;;;;54.72;29.05;;;-0.30;99.90;;;;;;2060575;28;20050;-66
2022/12/11 02:13:01;;;;;;;58.05;28.92;;;-0.40;99.90;;;;;;2057863;28;20055;-66
2022/12/11 02:14:15;;;;;;;51.90;27.17;;;-0.40;99.90;;;;;;2058141;28;20035;-66
2022/12/11 02:15:32;;;;;;;54.65;27.55;;;-0.40;99.90;;;;;;2060967;28;20034;-67
2022/12/11 02:16:54;;;;;;;51.72;26.88;;;-0.40;99.90;;;;;;2059796;28;20057;-68
2022/12/11 02:18:22;;;;;;;51.20;27.27;;;-0.40;99.90;;;;;;2062579;28;20035;-68
2022/12/11 02:20:06;;;;;;;51.90;26.30;;;-0.40;99.90;;;;;;2060114;28;20568;-68
2022/12/11 02:21:23;;;;;;;52.80;26.85;;;-0.40;99.90;;;;;;2060016;28;20046;-66
2022/12/11 02:22:54;;;;;;;51.95;26.95;;;-0.40;99.90;;;;;;2061968;28;20043;-66
2022/12/11 02:23:58;;;;;;;57.25;28.25;;;-0.40;99.90;;;;;;2060495;28;20596;-67
2022/12/11 02:25:32;;;;;;;59.13;29.52;;;-0.40;99.90;;;;;;2058411;28;20166;-66
2022/12/11 02:27:10;;;;;;;53.38;27.60;;;-0.40;99.90;;;;;;2064355;28;20098;-66
2022/12/11 02:28:41;;;;;;;54.90;27.48;;;-0.40;99.90;;;;;;2070946;28;20027;-67
2022/12/11 02:30:00;;;;;;;59.40;28.15;;;-0.40;99.90;;;;;;2066951;28;20086;-67
2022/12/11 02:31:11;;;;;;;53.90;27.15;;;-0.40;99.90;;;;;;2063655;28;20733;-70
2022/12/11 02:32:26;;;;;;;50.83;26.13;;;-0.40;99.90;;;;;;2069983;28;20038;-67
2022/12/11 02:33:44;;;;;;;53.45;27.83;;;-0.40;99.90;;;;;;2059770;28;20038;-67
2022/12/11 02:35:05;;;;;;;52.08;26.80;;;-0.40;99.90;;;;;;2058884;28;20030;-67
2022/12/11 02:36:08;;;;;;;52.65;26.42;;;-0.40;99.90;;;;;;2059789;28;20057;-67
2022/12/11 02:37:15;;;;;;;51.30;26.17;;;-0.40;99.90;;;;;;2059414;28;20386;-67
2022/12/11 02:38:23;;;;;;;49.28;26.23;;;-0.40;99.90;;;;;;2058685;28;20037;-67
2022/12/11 02:39:25;;;;;;;56.15;27.55;;;-0.40;99.90;;;;;;2061813;28;20028;-67
2022/12/11 02:40:31;;;;;;;51.40;27.58;;;-0.40;99.90;;;;;;2068161;28;20095;-67
2022/12/11 02:41:33;;;;;;;53.92;28.75;;;-0.30;99.90;;;;;;2069550;28;20041;-67
2022/12/11 02:42:36;;;;;;;53.25;27.27;;;-0.40;99.90;;;;;;2070870;28;20384;-67
2022/12/11 02:43:38;;;;;;;50.78;27.50;;;-0.40;99.90;;;;;;2061261;28;20053;-66
2022/12/11 02:44:40;;;;;;;53.95;28.33;;;-0.40;99.90;;;;;;2060734;28;20319;-66
2022/12/11 02:45:42;;;;;;;51.35;27.05;;;-0.40;99.90;;;;;;2059301;28;20043;-66
2022/12/11 02:46:44;;;;;;;50.72;26.40;;;-0.40;99.90;;;;;;2060302;28;20067;-66
2022/12/11 02:47:47;;;;;;;49.13;26.30;;;-0.40;99.90;;;;;;2062401;28;20026;-66
2022/12/11 02:48:51;;;;;;;49.00;27.48;;;-0.40;99.90;;;;;;2061328;28;20439;-66
2022/12/11 02:49:53;;;;;;;49.95;27.13;;;-0.40;99.90;;;;;;2053585;29;20509;-67
2022/12/11 02:50:58;;;;;;;51.85;27.90;;;-0.40;99.90;;;;;;2053171;29;20031;-67
2022/12/11 02:52:01;;;;;;;51.65;27.33;;;-0.40;99.90;;;;;;2053410;29;20015;-67
2022/12/11 02:53:03;;;;;;;49.35;26.52;;;-0.40;99.90;;;;;;2052647;28;20038;-66
2022/12/11 02:54:07;;;;;;;50.63;26.25;;;-0.40;99.90;;;;;;2052637;29;20038;-66
2022/12/11 02:55:13;;;;;;;51.75;28.08;;;-0.40;99.90;;;;;;2053096;29;20024;-67
2022/12/11 02:56:23;;;;;;;50.88;26.60;;;-0.40;99.90;;;;;;2060023;28;20141;-67
2022/12/11 02:57:30;;;;;;;51.85;26.13;;;-0.40;99.90;;;;;;2061792;28;20034;-67
2022/12/11 02:58:32;;;;;;;53.40;27.60;;;-0.40;99.90;;;;;;2061280;28;20035;-67
2022/12/11 02:59:36;;;;;;;52.15;26.40;;;-0.40;99.90;;;;;;2052824;28;20109;-67
2022/12/11 03:00:37;;;;;;;48.65;25.80;;;-0.50;99.90;;;;;;2061130;28;20035;-66
2022/12/11 03:01:38;;;;;;;47.78;25.85;;;-0.40;99.90;;;;;;2062589;28;20438;-66
2022/12/11 03:02:40;;;;;;;50.15;26.58;;;-0.40;99.90;;;;;;2061370;28;20037;-66
2022/12/11 03:03:41;;;;;;;48.05;25.90;;;-0.40;99.90;;;;;;2061336;28;20089;-66
2022/12/11 03:04:44;;;;;;;47.85;25.98;;;-0.40;99.90;;;;;;2061393;28;20109;-66
2022/12/11 03:05:45;;;;;;;50.42;26.33;;;-0.40;99.90;;;;;;2061898;28;20031;-66
2022/12/11 03:06:50;;;;;;;50.42;26.33;;;-0.40;99.90;;;;;;2061571;28;20090;-66
2022/12/11 03:07:50;;;;;;;50.20;26.27;;;-0.40;99.90;;;;;;2062116;28;20111;-66
2022/12/11 03:08:51;;;;;;;47.85;26.13;;;-0.30;99.90;;;;;;2061556;28;20035;-66
2022/12/11 03:09:52;;;;;;;48.60;26.25;;;-0.30;99.90;;;;;;2061387;28;20019;-67
2022/12/11 03:10:53;;;;;;;48.85;26.05;;;-0.30;99.90;;;;;;2061697;28;20025;-66
2022/12/11 03:11:54;;;;;;;45.20;24.70;;;-0.30;99.90;;;;;;2061871;28;20042;-66
2022/12/11 03:12:56;;;;;;;50.50;26.92;;;-0.30;99.90;;;;;;2058148;28;20019;-67
2022/12/11 03:14:01;;;;;;;48.08;25.75;;;-0.30;99.90;;;;;;2056549;28;20106;-67
2022/12/11 03:15:06;;;;;;;46.53;25.55;;;-0.30;99.90;;;;;;2060380;28;20475;-67
2022/12/11 03:16:35;;;;;;;51.10;26.85;;;-0.30;99.90;;;;;;2047937;28;20039;-68
2022/12/11 03:17:58;;;;;;;48.05;24.92;;;-0.30;99.90;;;;;;2055810;28;20465;-67
2022/12/11 03:19:21;;;;;;;47.05;24.80;;;-0.40;99.90;;;;;;2048612;29;20031;-67
2022/12/11 03:20:42;;;;;;;48.38;24.83;;;-0.40;99.90;;;;;;2049363;29;20042;-67
2022/12/11 03:21:53;;;;;;;49.83;26.35;;;-0.40;99.90;;;;;;2049315;28;20430;-67
2022/12/11 03:23:17;;;;;;;49.40;25.70;;;-0.40;99.90;;;;;;2049164;28;20063;-67
2022/12/11 03:24:32;;;;;;;49.20;25.77;;;-0.40;99.90;;;;;;2043598;29;20067;-67
2022/12/11 03:26:18;;;;;;;48.53;26.20;;;-0.40;99.90;;;;;;2048846;28;20493;-67
2022/12/11 03:27:51;;;;;;;48.63;25.10;;;-0.40;99.90;;;;;;2049009;28;20061;-67
2022/12/11 03:28:59;;;;;;;50.03;26.05;;;-0.40;99.90;;;;;;2047006;29;20458;-67
2022/12/11 03:30:06;;;;;;;50.38;25.45;;;-0.40;99.90;;;;;;2049582;28;20063;-66
2022/12/11 03:31:11;;;;;;;50.20;26.02;;;-0.50;99.90;;;;;;2040808;29;20467;-66
2022/12/11 03:32:21;;;;;;;46.85;25.48;;;-0.50;99.90;;;;;;2041958;28;20035;-66
2022/12/11 03:33:42;;;;;;;48.00;25.15;;;-0.50;99.90;;;;;;2062664;28;20489;-67
2022/12/11 03:34:45;;;;;;;;;;;-0.50;99.90;;;;;;2057309;28;20034;-67
2022/12/11 03:35:51;;;;;;;49.78;25.23;;;-0.50;99.90;;;;;;2056312;28;19957;-67
2022/12/11 03:36:54;;;;;;;47.75;25.60;;;-0.50;99.90;;;;;;2048645;29;20039;-67
2022/12/11 03:37:57;;;;;;;48.70;24.48;;;-0.60;99.90;;;;;;2049298;29;20405;-67
2022/12/11 03:39:06;;;;;;;49.22;25.75;;;-0.50;99.90;;;;;;2049304;29;20027;-67
2022/12/11 03:40:13;;;;;;;47.70;25.05;;;-0.50;99.90;;;;;;2049271;29;20125;-67
2022/12/11 03:41:18;;;;;;;46.72;25.10;;;-0.50;99.90;;;;;;2057155;28;20488;-68
2022/12/11 03:42:20;;;;;;;49.55;26.23;;;-0.50;99.90;;;;;;2051815;28;20039;-67
2022/12/11 03:43:22;;;;;;;47.00;25.20;;;-0.50;99.90;;;;;;2052368;28;20023;-68
2022/12/11 03:44:25;;;;;;;49.35;26.55;;;-0.50;99.90;;;;;;2060083;28;20022;-69
2022/12/11 03:45:27;;;;;;;47.83;25.52;;;-0.50;99.90;;;;;;2060225;28;20583;-67
2022/12/11 03:46:35;;;;;;;48.17;25.45;;;-0.50;99.90;;;;;;2058445;28;20057;-67
2022/12/11 03:47:38;;;;;;;47.75;25.85;;;-0.60;99.90;;;;;;2056765;28;20037;-67
2022/12/11 03:48:42;;;;;;;48.95;25.98;;;-0.60;99.90;;;;;;2058289;28;20122;-67
2022/12/11 03:49:44;;;;;;;47.20;25.88;;;-0.60;99.90;;;;;;2059068;28;20094;-67
2022/12/11 03:50:46;;;;;;;48.95;24.75;;;-0.60;99.90;;;;;;2058907;28;20031;-67
2022/12/11 03:51:49;;;;;;;45.83;24.92;;;-0.60;99.90;;;;;;2059387;28;20464;-68
2022/12/11 03:52:52;;;;;;;47.47;25.25;;;-0.60;99.90;;;;;;2057119;28;20081;-67
2022/12/11 03:53:54;;;;;;;47.83;25.02;;;-0.60;99.90;;;;;;2057229;28;20129;-67
2022/12/11 03:55:00;;;;;;;47.72;24.70;;;-0.60;99.90;;;;;;2056926;28;20043;-67
2022/12/11 03:56:05;;;;;;;46.58;24.95;;;-0.60;99.90;;;;;;2057038;28;20022;-68
2022/12/11 03:57:10;;;;;;;46.58;25.20;;;-0.60;99.90;;;;;;2057494;28;20023;-68
2022/12/11 03:58:11;;;;;;;45.70;24.65;;;-0.60;99.90;;;;;;2056283;28;20063;-67
2022/12/11 03:59:12;;;;;;;44.22;24.65;;;-0.60;99.90;;;;;;2057072;28;20022;-67
2022/12/11 04:00:17;;;;;;;45.90;25.05;;;-0.50;99.90;;;;;;2057147;28;20019;-67
2022/12/11 04:01:18;;;;;;;46.05;23.88;;;-0.50;99.90;;;;;;2056992;28;20042;-67
2022/12/11 04:02:19;;;;;;;45.40;24.83;;;-0.50;99.90;;;;;;2056795;28;20121;-67
2022/12/11 04:03:20;;;;;;;42.72;22.90;;;-0.50;99.90;;;;;;2057113;28;20106;-68
2022/12/11 04:04:20;;;;;;;39.97;22.65;;;-0.60;99.90;;;;;;2056867;28;20019;-67
2022/12/11 04:05:21;;;;;;;42.72;22.85;;;-0.50;99.90;;;;;;2056895;28;20556;-67
2022/12/11 04:06:22;;;;;;;42.60;23.27;;;-0.50;99.90;;;;;;2056489;28;20046;-67
2022/12/11 04:07:22;;;;;;;43.70;24.35;;;-0.50;99.90;;;;;;2056559;28;20054;-67
2022/12/11 04:08:23;;;;;;;44.22;22.92;;;-0.50;99.90;;;;;;2058078;28;20023;-67
2022/12/11 04:09:24;;;;;;;44.17;24.10;;;-0.50;99.90;;;;;;2056946;28;20018;-67
2022/12/11 04:10:25;;;;;;;44.55;24.17;;;-0.50;99.90;;;;;;2057894;28;20035;-67
2022/12/11 04:11:34;;;;;;;45.17;24.83;;;-0.50;99.90;;;;;;2056488;28;20026;-67
2022/12/11 04:12:35;;;;;;;46.13;24.13;;;-0.50;99.90;;;;;;2056875;28;20046;-67
2022/12/11 04:13:36;;;;;;;44.92;24.10;;;-0.50;99.90;;;;;;2056956;28;20348;-67
2022/12/11 04:15:56;;;;;;;44.67;23.27;;;-0.50;99.90;;;;;;2067086;28;20040;-67
2022/12/11 04:16:59;;;;;;;43.97;23.70;;;-0.50;99.90;;;;;;2055620;28;20053;-67
2022/12/11 04:24:37;;;;;;;50.35;25.67;;;-0.50;99.90;;;;;;2057016;28;20031;-67
2022/12/11 04:25:38;;;;;;;48.95;25.55;;;-0.50;99.90;;;;;;2057913;28;20038;-68
2022/12/11 04:26:39;;;;;;;48.13;24.73;;;-0.50;99.90;;;;;;2057849;28;20548;-67
2022/12/11 04:27:48;;;;;;;47.78;25.00;;;-0.40;99.90;;;;;;2057838;28;20027;-67
2022/12/11 04:28:50;;;;;;;45.83;24.85;;;-0.50;99.90;;;;;;2057610;28;20637;-66
2022/12/11 04:29:51;;;;;;;45.95;24.58;;;-0.50;99.90;;;;;;2057670;28;20015;-66
2022/12/11 04:30:51;;;;;;;44.95;24.35;;;-0.50;99.90;;;;;;2057339;28;20497;-66
2022/12/11 04:31:55;;;;;;;43.58;22.90;;;-0.50;99.90;;;;;;2059235;28;20043;-68
2022/12/11 04:32:57;;;;;;;39.55;20.95;;;-0.50;99.90;;;;;;2059044;28;20031;-67
2022/12/11 04:33:57;;;;;;;38.25;21.35;;;-0.50;99.90;;;;;;2056057;28;20023;-67
2022/12/11 04:34:58;;;;;;;42.45;22.23;;;-0.50;99.90;;;;;;2055737;28;20031;-67
2022/12/11 04:35:59;;;;;;;41.55;23.05;;;-0.50;99.90;;;;;;2056023;28;20022;-67
2022/12/11 04:37:00;;;;;;;47.03;24.50;;;-0.50;99.90;;;;;;2056298;28;20029;-67
2022/12/11 04:38:01;;;;;;;42.38;23.98;;;-0.50;99.90;;;;;;2056398;28;20046;-67
2022/12/11 04:39:03;;;;;;;40.58;22.92;;;-0.50;99.90;;;;;;2056195;28;20068;-67
2022/12/11 04:40:06;;;;;;;42.92;23.50;;;-0.50;99.90;;;;;;2055280;28;20046;-66
2022/12/11 04:41:11;;;;;;;46.72;25.02;;;-0.50;99.90;;;;;;2055301;28;20027;-67
2022/12/11 04:42:12;;;;;;;45.35;24.38;;;-0.50;99.90;;;;;;2052262;28;20022;-66
2022/12/11 04:43:13;;;;;;;44.60;24.63;;;-0.50;99.90;;;;;;2056925;28;20023;-66
2022/12/11 04:44:13;;;;;;;47.22;25.38;;;-0.50;99.90;;;;;;2055970;28;20174;-66
2022/12/11 04:45:14;;;;;;;45.33;24.50;;;-0.50;99.90;;;;;;2056292;28;20070;-66
2022/12/11 04:46:20;;;;;;;48.65;25.55;;;-0.50;99.90;;;;;;2055668;28;20034;-66
2022/12/11 04:47:21;;;;;;;47.75;25.67;;;-0.50;99.90;;;;;;2056028;28;20035;-66
2022/12/11 04:48:22;;;;;;;46.33;25.52;;;-0.50;99.90;;;;;;2060216;28;20547;-66
2022/12/11 04:49:22;;;;;;;48.50;25.13;;;-0.50;99.90;;;;;;2064967;28;20046;-66
2022/12/11 04:50:23;;;;;;;53.38;27.27;;;-0.60;99.90;;;;;;2063915;28;20037;-66
2022/12/11 04:51:24;;;;;;;50.55;27.35;;;-0.60;99.90;;;;;;2063849;28;20453;-67
2022/12/11 04:52:25;;;;;;;49.25;26.17;;;-0.60;99.90;;;;;;2064474;28;20038;-66
2022/12/11 04:53:26;;;;;;;47.83;25.27;;;-0.60;99.90;;;;;;2064659;28;20122;-67
2022/12/11 04:54:31;;;;;;;47.22;26.17;;;-0.60;99.90;;;;;;2064416;28;20034;-68
2022/12/11 04:55:31;;;;;;;45.50;25.13;;;-0.60;99.90;;;;;;2064492;28;20026;-66
2022/12/11 04:56:32;;;;;;;49.88;26.17;;;-0.60;99.90;;;;;;2064742;28;20061;-66
2022/12/11 04:57:33;;;;;;;45.42;25.20;;;-0.60;99.90;;;;;;2064607;28;20038;-66
2022/12/11 04:58:34;;;;;;;48.40;25.83;;;-0.60;99.90;;;;;;2064954;28;20612;-67
2022/12/11 04:59:36;;;;;;;47.63;26.00;;;-0.60;99.90;;;;;;2064742;28;20088;-67
2022/12/11 05:00:36;;;;;;;45.55;24.48;;;-0.60;99.90;;;;;;2065292;28;20044;-67
2022/12/11 05:01:37;;;;;;;46.58;24.63;;;-0.70;99.90;;;;;;2066036;28;20045;-66
2022/12/11 05:02:39;;;;;;;45.10;24.35;;;-0.60;99.90;;;;;;2065924;28;20034;-67
2022/12/11 05:03:40;;;;;;;50.00;25.90;;;-0.60;99.90;;;;;;2057289;28;20074;-68
2022/12/11 05:04:41;;;;;;;49.25;26.30;;;-0.60;99.90;;;;;;2055803;28;20121;-66
2022/12/11 05:05:50;;;;;;;51.92;27.25;;;-0.60;99.90;;;;;;2056188;28;20090;-67
2022/12/11 05:06:51;;;;;;;47.50;26.40;;;-0.50;99.90;;;;;;2057826;28;20110;-66
2022/12/11 05:07:51;;;;;;;53.53;28.05;;;-0.50;99.90;;;;;;2055574;28;20492;-68
2022/12/11 05:08:52;;;;;;;50.97;27.20;;;-0.50;99.90;;;;;;2056026;28;20533;-68
2022/12/11 05:09:53;;;;;;;51.22;26.95;;;-0.50;99.90;;;;;;2056185;28;20393;-68
2022/12/11 05:10:58;;;;;;;54.33;28.33;;;-0.50;99.90;;;;;;2063768;28;20030;-68
2022/12/11 05:11:59;;;;;;;60.33;30.35;;;-0.50;99.90;;;;;;2055842;28;20038;-68
2022/12/11 05:13:00;;;;;;;62.08;29.33;;;-0.40;99.90;;;;;;2056071;28;20026;-68
2022/12/11 05:14:01;;;;;;;64.75;29.92;;;-0.40;99.90;;;;;;2056876;28;20112;-67
2022/12/11 05:15:02;;;;;;;61.10;28.67;;;-0.40;99.90;;;;;;2057473;28;20098;-68
2022/12/11 05:16:04;;;;;;;64.65;28.80;;;-0.40;99.90;;;;;;2056804;28;20493;-68
2022/12/11 05:17:05;;;;;;;62.70;29.92;;;-0.50;99.90;;;;;;2057175;28;20637;-68
2022/12/11 05:18:05;;;;;;;65.13;29.60;;;-0.50;99.90;;;;;;2057932;28;20031;-69
2022/12/11 05:19:06;;;;;;;58.55;28.00;;;-0.50;99.90;;;;;;2057371;28;20157;-66
2022/12/11 05:20:08;;;;;;;57.00;26.70;;;-0.50;99.90;;;;;;2057155;28;20026;-67
2022/12/11 05:21:11;;;;;;;58.88;28.05;;;-0.50;99.90;;;;;;2057063;28;20551;-67
2022/12/11 05:22:11;;;;;;;58.10;29.02;;;-0.50;99.90;;;;;;2056767;28;20029;-67
2022/12/11 05:23:12;;;;;;;55.92;27.75;;;-0.60;99.90;;;;;;2057260;28;20030;-67
2022/12/11 05:24:13;;;;;;;55.85;28.70;;;-0.60;99.90;;;;;;2057182;28;20031;-67
2022/12/11 05:25:14;;;;;;;57.58;28.35;;;-0.60;99.90;;;;;;2056927;28;20041;-67
2022/12/11 05:26:18;;;;;;;58.45;28.08;;;-0.60;99.90;;;;;;2056479;28;20042;-67
2022/12/11 05:27:19;;;;;;;58.20;28.48;;;-0.60;99.90;;;;;;2057393;28;20031;-67
2022/12/11 05:28:21;;;;;;;54.72;26.75;;;-0.70;99.90;;;;;;2057230;28;20018;-67
2022/12/11 05:29:22;;;;;;;50.38;26.42;;;-0.70;99.90;;;;;;2057200;28;20038;-67
2022/12/11 05:30:22;;;;;;;53.90;27.33;;;-0.70;99.90;;;;;;2056682;28;20035;-66
2022/12/11 05:31:25;;;;;;;52.03;26.92;;;-0.70;99.90;;;;;;2056794;28;20030;-67
2022/12/11 05:32:26;;;;;;;50.05;25.17;;;-0.70;99.90;;;;;;2057019;28;20019;-67
2022/12/11 05:33:27;;;;;;;54.10;26.25;;;-0.80;99.90;;;;;;2056988;28;20089;-66
2022/12/11 05:34:28;;;;;;;49.38;24.98;;;-0.70;99.90;;;;;;2057831;28;20035;-67
2022/12/11 05:35:28;;;;;;;46.88;24.33;;;-0.70;99.90;;;;;;2057687;28;20031;-67